sensor_id;sensor_type;location;lat;lon;timestamp;pressure;altitude;pressure_sealevel;temperature;humidity
59493;BME280;45497;43.996;22.876;2023-01-13T00:01:59;101864.09;;;7.19;61.34
59493;BME280;45497;43.996;22.876;2023-01-13T00:04:25;101875.25;;;7.23;61.06
59493;BME280;45497;43.996;22.876;2023-01-13T00:06:50;101875.00;;;7.15;61.39
59493;BME280;45497;43.996;22.876;2023-01-13T00:09:16;101875.72;;;7.17;61.48
59493;BME280;45497;43.996;22.876;2023-01-13T00:11:42;101878.00;;;7.21;61.12
59493;BME280;45497;43.996;22.876;2023-01-13T00:14:07;101874.41;;;7.22;61.25
59493;BME280;45497;43.996;22.876;2023-01-13T00:16:33;101884.84;;;7.24;61.18
59493;BME280;45497;43.996;22.876;2023-01-13T00:18:58;101880.41;;;7.24;61.06
59493;BME280;45497;43.996;22.876;2023-01-13T00:21:24;101884.47;;;7.28;61.40
59493;BME280;45497;43.996;22.876;2023-01-13T00:23:53;101883.41;;;7.31;60.92
59493;BME280;45497;43.996;22.876;2023-01-13T00:26:21;101880.78;;;7.31;60.98
59493;BME280;45497;43.996;22.876;2023-01-13T00:28:47;101879.06;;;7.41;60.71
59493;BME280;45497;43.996;22.876;2023-01-13T00:31:17;101879.66;;;7.45;60.51
59493;BME280;45497;43.996;22.876;2023-01-13T00:33:43;101882.44;;;7.43;60.58
59493;BME280;45497;43.996;22.876;2023-01-13T00:36:11;101884.13;;;7.44;60.67
59493;BME280;45497;43.996;22.876;2023-01-13T00:38:38;101883.03;;;7.47;60.54
59493;BME280;45497;43.996;22.876;2023-01-13T00:41:06;101882.44;;;7.43;60.69
59493;BME280;45497;43.996;22.876;2023-01-13T00:43:33;101889.41;;;7.33;61.00
59493;BME280;45497;43.996;22.876;2023-01-13T00:46:00;101887.94;;;7.29;61.01
59493;BME280;45497;43.996;22.876;2023-01-13T00:48:26;101894.66;;;7.22;61.30
59493;BME280;45497;43.996;22.876;2023-01-13T00:51:04;101887.81;;;7.19;61.40
59493;BME280;45497;43.996;22.876;2023-01-13T00:53:35;101877.41;;;7.18;61.40
59493;BME280;45497;43.996;22.876;2023-01-13T00:56:03;101883.28;;;7.21;61.36
59493;BME280;45497;43.996;22.876;2023-01-13T00:58:31;101884.00;;;7.23;61.23
59493;BME280;45497;43.996;22.876;2023-01-13T01:01:02;101876.78;;;7.25;61.52
59493;BME280;45497;43.996;22.876;2023-01-13T01:03:29;101877.88;;;7.23;61.45
59493;BME280;45497;43.996;22.876;2023-01-13T01:05:55;101872.13;;;7.18;61.51
59493;BME280;45497;43.996;22.876;2023-01-13T01:08:21;101875.97;;;7.14;61.70
59493;BME280;45497;43.996;22.876;2023-01-13T01:10:46;101869.38;;;7.08;61.81
59493;BME280;45497;43.996;22.876;2023-01-13T01:13:12;101866.72;;;7.08;61.85
59493;BME280;45497;43.996;22.876;2023-01-13T01:15:42;101868.78;;;7.16;61.65
59493;BME280;45497;43.996;22.876;2023-01-13T01:18:07;101869.47;;;7.18;61.67
59493;BME280;45497;43.996;22.876;2023-01-13T01:20:33;101872.59;;;7.23;61.71
59493;BME280;45497;43.996;22.876;2023-01-13T01:22:59;101860.50;;;7.20;61.37
59493;BME280;45497;43.996;22.876;2023-01-13T01:25:25;101863.38;;;7.28;61.47
59493;BME280;45497;43.996;22.876;2023-01-13T01:27:50;101862.75;;;7.36;61.13
59493;BME280;45497;43.996;22.876;2023-01-13T01:30:16;101864.34;;;7.39;61.07
59493;BME280;45497;43.996;22.876;2023-01-13T01:32:41;101860.50;;;7.43;61.36
59493;BME280;45497;43.996;22.876;2023-01-13T01:35:07;101866.59;;;7.43;60.70
59493;BME280;45497;43.996;22.876;2023-01-13T01:37:32;101851.16;;;7.39;60.94
59493;BME280;45497;43.996;22.876;2023-01-13T01:39:58;101861.47;;;7.42;61.15
59493;BME280;45497;43.996;22.876;2023-01-13T01:42:23;101858.09;;;7.40;60.98
59493;BME280;45497;43.996;22.876;2023-01-13T01:47:36;101858.56;;;7.45;60.45
59493;BME280;45497;43.996;22.876;2023-01-13T01:50:03;101850.66;;;7.45;60.87
59493;BME280;45497;43.996;22.876;2023-01-13T01:52:40;101855.69;;;7.48;60.59
59493;BME280;45497;43.996;22.876;2023-01-13T01:55:17;101844.31;;;7.47;60.54
59493;BME280;45497;43.996;22.876;2023-01-13T02:00:34;101840.34;;;7.53;60.38
59493;BME280;45497;43.996;22.876;2023-01-13T02:03:00;101845.38;;;7.56;60.58
59493;BME280;45497;43.996;22.876;2023-01-13T02:05:27;101843.09;;;7.52;60.30
59493;BME280;45497;43.996;22.876;2023-01-13T02:07:55;101845.63;;;7.53;60.57
59493;BME280;45497;43.996;22.876;2023-01-13T02:10:24;101851.25;;;7.49;60.41
59493;BME280;45497;43.996;22.876;2023-01-13T02:12:53;101837.97;;;7.39;60.56
59493;BME280;45497;43.996;22.876;2023-01-13T02:18:37;101846.34;;;7.33;61.30
59493;BME280;45497;43.996;22.876;2023-01-13T02:30:01;101826.91;;;7.45;60.77
59493;BME280;45497;43.996;22.876;2023-01-13T02:36:43;101832.06;;;7.46;60.51
59493;BME280;45497;43.996;22.876;2023-01-13T02:38:56;101825.84;;;7.47;60.38
59493;BME280;45497;43.996;22.876;2023-01-13T02:41:26;101831.94;;;7.48;60.50
59493;BME280;45497;43.996;22.876;2023-01-13T02:44:15;101826.19;;;7.43;60.48
59493;BME280;45497;43.996;22.876;2023-01-13T02:49:20;101827.88;;;7.33;60.67
59493;BME280;45497;43.996;22.876;2023-01-13T02:51:49;101831.59;;;7.30;60.70
59493;BME280;45497;43.996;22.876;2023-01-13T02:54:20;101829.44;;;7.35;60.72
59493;BME280;45497;43.996;22.876;2023-01-13T02:56:48;101836.75;;;7.43;60.31
59493;BME280;45497;43.996;22.876;2023-01-13T02:59:18;101839.03;;;7.47;60.38
59493;BME280;45497;43.996;22.876;2023-01-13T03:01:45;101829.66;;;7.43;60.63
59493;BME280;45497;43.996;22.876;2023-01-13T03:12:49;101836.88;;;7.53;60.06
59493;BME280;45497;43.996;22.876;2023-01-13T03:20:35;101833.72;;;7.59;59.81
59493;BME280;45497;43.996;22.876;2023-01-13T03:25:42;101830.84;;;7.62;60.29
59493;BME280;45497;43.996;22.876;2023-01-13T03:28:19;101831.94;;;7.59;60.00
59493;BME280;45497;43.996;22.876;2023-01-13T03:30:53;101831.81;;;7.61;60.08
59493;BME280;45497;43.996;22.876;2023-01-13T03:33:30;101833.50;;;7.62;60.26
59493;BME280;45497;43.996;22.876;2023-01-13T03:36:01;101827.25;;;7.63;60.06
59493;BME280;45497;43.996;22.876;2023-01-13T03:38:44;101831.44;;;7.65;60.29
59493;BME280;45497;43.996;22.876;2023-01-13T03:44:16;101836.47;;;7.69;59.57
59493;BME280;45497;43.996;22.876;2023-01-13T03:47:10;101832.03;;;7.69;59.86
59493;BME280;45497;43.996;22.876;2023-01-13T03:53:14;101842.59;;;7.69;60.24
59493;BME280;45497;43.996;22.876;2023-01-13T03:55:46;101845.97;;;7.60;60.13
59493;BME280;45497;43.996;22.876;2023-01-13T04:01:03;101845.63;;;7.53;60.35
59493;BME280;45497;43.996;22.876;2023-01-13T04:03:37;101841.75;;;7.57;60.31
59493;BME280;45497;43.996;22.876;2023-01-13T04:06:17;101842.75;;;7.56;60.44
59493;BME280;45497;43.996;22.876;2023-01-13T04:08:58;101837.69;;;7.53;60.22
59493;BME280;45497;43.996;22.876;2023-01-13T04:11:29;101846.69;;;7.51;60.77
59493;BME280;45497;43.996;22.876;2023-01-13T04:13:57;101850.19;;;7.51;60.48
59493;BME280;45497;43.996;22.876;2023-01-13T04:16:24;101851.63;;;7.44;60.50
59493;BME280;45497;43.996;22.876;2023-01-13T04:18:49;101853.78;;;7.39;60.91
59493;BME280;45497;43.996;22.876;2023-01-13T04:21:15;101852.22;;;7.36;61.00
59493;BME280;45497;43.996;22.876;2023-01-13T04:23:40;101854.13;;;7.34;60.95
59493;BME280;45497;43.996;22.876;2023-01-13T04:26:06;101858.59;;;7.34;61.25
59493;BME280;45497;43.996;22.876;2023-01-13T04:28:31;101851.28;;;7.26;61.20
59493;BME280;45497;43.996;22.876;2023-01-13T04:30:59;101856.66;;;7.24;61.31
59493;BME280;45497;43.996;22.876;2023-01-13T04:33:24;101849.38;;;7.17;61.67
59493;BME280;45497;43.996;22.876;2023-01-13T04:35:50;101860.38;;;7.22;61.32
59493;BME280;45497;43.996;22.876;2023-01-13T04:38:18;101857.28;;;7.17;61.16
59493;BME280;45497;43.996;22.876;2023-01-13T04:40:44;101863.25;;;7.19;61.24
59493;BME280;45497;43.996;22.876;2023-01-13T04:43:10;101870.47;;;7.17;61.13
59493;BME280;45497;43.996;22.876;2023-01-13T04:45:36;101865.41;;;7.14;61.49
59493;BME280;45497;43.996;22.876;2023-01-13T04:48:02;101870.56;;;7.15;61.53
59493;BME280;45497;43.996;22.876;2023-01-13T04:50:28;101865.91;;;7.19;61.43
59493;BME280;45497;43.996;22.876;2023-01-13T04:52:54;101870.91;;;7.22;61.32
59493;BME280;45497;43.996;22.876;2023-01-13T04:55:21;101875.84;;;7.26;61.29
59493;BME280;45497;43.996;22.876;2023-01-13T04:57:47;101869.13;;;7.22;61.39
59493;BME280;45497;43.996;22.876;2023-01-13T05:00:15;101872.72;;;7.21;61.39
59493;BME280;45497;43.996;22.876;2023-01-13T05:02:41;101866.03;;;7.17;61.58
59493;BME280;45497;43.996;22.876;2023-01-13T05:05:07;101866.03;;;7.17;61.70
59493;BME280;45497;43.996;22.876;2023-01-13T05:07:33;101864.31;;;7.16;61.58
59493;BME280;45497;43.996;22.876;2023-01-13T05:09:59;101872.00;;;7.19;61.80
59493;BME280;45497;43.996;22.876;2023-01-13T05:12:24;101878.00;;;7.10;61.69
59493;BME280;45497;43.996;22.876;2023-01-13T05:15:13;101880.16;;;7.05;61.87
59493;BME280;45497;43.996;22.876;2023-01-13T05:17:57;101872.34;;;6.92;61.96
59493;BME280;45497;43.996;22.876;2023-01-13T05:20:23;101885.91;;;6.99;62.12
59493;BME280;45497;43.996;22.876;2023-01-13T05:22:49;101881.81;;;6.95;62.04
59493;BME280;45497;43.996;22.876;2023-01-13T05:25:36;101883.94;;;6.89;62.10
59493;BME280;45497;43.996;22.876;2023-01-13T05:28:03;101885.97;;;6.86;62.28
59493;BME280;45497;43.996;22.876;2023-01-13T05:30:31;101878.56;;;6.91;62.04
59493;BME280;45497;43.996;22.876;2023-01-13T05:32:57;101884.69;;;6.92;61.93
59493;BME280;45497;43.996;22.876;2023-01-13T05:35:23;101892.22;;;6.96;61.79
59493;BME280;45497;43.996;22.876;2023-01-13T05:37:49;101883.81;;;6.91;61.80
59493;BME280;45497;43.996;22.876;2023-01-13T05:40:17;101883.50;;;6.96;61.75
59493;BME280;45497;43.996;22.876;2023-01-13T05:43:10;101887.22;;;7.04;61.47
59493;BME280;45497;43.996;22.876;2023-01-13T05:48:18;101890.56;;;7.06;61.61
59493;BME280;45497;43.996;22.876;2023-01-13T05:50:45;101883.25;;;6.99;61.60
59493;BME280;45497;43.996;22.876;2023-01-13T05:53:12;101894.63;;;6.99;61.87
59493;BME280;45497;43.996;22.876;2023-01-13T05:55:41;101896.31;;;7.00;61.62
59493;BME280;45497;43.996;22.876;2023-01-13T05:58:07;101890.91;;;7.02;61.76
59493;BME280;45497;43.996;22.876;2023-01-13T06:00:33;101881.84;;;7.06;61.79
59493;BME280;45497;43.996;22.876;2023-01-13T06:02:59;101886.84;;;7.09;61.69
59493;BME280;45497;43.996;22.876;2023-01-13T06:05:24;101880.97;;;7.05;61.44
59493;BME280;45497;43.996;22.876;2023-01-13T06:07:50;101881.22;;;7.02;61.47
59493;BME280;45497;43.996;22.876;2023-01-13T06:10:16;101881.69;;;7.07;61.53
59493;BME280;45497;43.996;22.876;2023-01-13T06:12:41;101889.03;;;7.15;61.16
59493;BME280;45497;43.996;22.876;2023-01-13T06:15:07;101889.63;;;7.19;61.09
59493;BME280;45497;43.996;22.876;2023-01-13T06:17:33;101894.41;;;7.25;61.15
59493;BME280;45497;43.996;22.876;2023-01-13T06:19:58;101888.66;;;7.20;60.98
59493;BME280;45497;43.996;22.876;2023-01-13T06:22:29;101893.47;;;7.26;61.05
59493;BME280;45497;43.996;22.876;2023-01-13T06:24:59;101901.50;;;7.24;61.36
59493;BME280;45497;43.996;22.876;2023-01-13T06:27:26;101901.63;;;7.23;61.37
59493;BME280;45497;43.996;22.876;2023-01-13T06:32:42;101905.22;;;7.33;61.15
59493;BME280;45497;43.996;22.876;2023-01-13T06:35:13;101901.72;;;7.33;61.53
59493;BME280;45497;43.996;22.876;2023-01-13T06:37:42;101903.19;;;7.37;61.15
59493;BME280;45497;43.996;22.876;2023-01-13T06:40:12;101907.97;;;7.43;61.25
59493;BME280;45497;43.996;22.876;2023-01-13T06:42:38;101909.78;;;7.42;61.21
59493;BME280;45497;43.996;22.876;2023-01-13T06:45:24;101907.38;;;7.39;61.33
59493;BME280;45497;43.996;22.876;2023-01-13T06:47:51;101898.13;;;7.45;61.02
59493;BME280;45497;43.996;22.876;2023-01-13T06:50:17;101897.91;;;7.48;61.48
59493;BME280;45497;43.996;22.876;2023-01-13T06:52:43;101902.09;;;7.51;60.92
59493;BME280;45497;43.996;22.876;2023-01-13T06:55:08;101897.78;;;7.50;61.15
59493;BME280;45497;43.996;22.876;2023-01-13T06:57:34;101903.06;;;7.50;61.32
59493;BME280;45497;43.996;22.876;2023-01-13T06:59:59;101905.34;;;7.43;61.31
59493;BME280;45497;43.996;22.876;2023-01-13T07:02:25;101898.63;;;7.39;61.71
59493;BME280;45497;43.996;22.876;2023-01-13T07:04:52;101899.22;;;7.42;61.41
59493;BME280;45497;43.996;22.876;2023-01-13T07:07:17;101902.34;;;7.47;61.68
59493;BME280;45497;43.996;22.876;2023-01-13T07:09:43;101905.72;;;7.50;61.58
59493;BME280;45497;43.996;22.876;2023-01-13T07:12:08;101900.91;;;7.43;61.88
59493;BME280;45497;43.996;22.876;2023-01-13T07:14:35;101913.03;;;7.46;62.02
59493;BME280;45497;43.996;22.876;2023-01-13T07:17:19;101908.22;;;7.28;62.03
59493;BME280;45497;43.996;22.876;2023-01-13T07:19:52;101915.91;;;7.32;62.18
59493;BME280;45497;43.996;22.876;2023-01-13T07:22:18;101911.34;;;7.34;62.14
59493;BME280;45497;43.996;22.876;2023-01-13T07:24:43;101916.97;;;7.40;62.07
59493;BME280;45497;43.996;22.876;2023-01-13T07:27:09;101903.91;;;7.39;62.01
59493;BME280;45497;43.996;22.876;2023-01-13T07:29:34;101908.47;;;7.48;61.98
59493;BME280;45497;43.996;22.876;2023-01-13T07:32:01;101921.53;;;7.50;61.71
59493;BME280;45497;43.996;22.876;2023-01-13T07:34:27;101919.84;;;7.49;61.88
59493;BME280;45497;43.996;22.876;2023-01-13T07:36:52;101925.59;;;7.54;61.98
59493;BME280;45497;43.996;22.876;2023-01-13T07:39:17;101929.94;;;7.55;61.72
59493;BME280;45497;43.996;22.876;2023-01-13T07:41:43;101939.50;;;7.56;62.15
59493;BME280;45497;43.996;22.876;2023-01-13T07:44:27;101929.22;;;7.64;61.42
59493;BME280;45497;43.996;22.876;2023-01-13T07:46:53;101934.72;;;7.72;61.70
59493;BME280;45497;43.996;22.876;2023-01-13T07:49:18;101926.19;;;7.69;61.84
59493;BME280;45497;43.996;22.876;2023-01-13T07:51:43;101931.13;;;7.73;62.06
59493;BME280;45497;43.996;22.876;2023-01-13T07:54:09;101930.75;;;7.66;62.36
59493;BME280;45497;43.996;22.876;2023-01-13T07:56:34;101940.22;;;7.58;62.44
59493;BME280;45497;43.996;22.876;2023-01-13T07:59:00;101938.31;;;7.37;62.84
59493;BME280;45497;43.996;22.876;2023-01-13T08:01:26;101940.63;;;7.42;62.85
59493;BME280;45497;43.996;22.876;2023-01-13T08:03:52;101931.97;;;7.51;62.90
59493;BME280;45497;43.996;22.876;2023-01-13T08:06:18;101942.03;;;7.69;62.55
59493;BME280;45497;43.996;22.876;2023-01-13T08:08:43;101938.69;;;7.78;62.31
59493;BME280;45497;43.996;22.876;2023-01-13T08:11:09;101946.34;;;7.81;62.24
59493;BME280;45497;43.996;22.876;2023-01-13T08:13:34;101946.13;;;7.73;62.31
59493;BME280;45497;43.996;22.876;2023-01-13T08:16:05;101952.22;;;7.73;62.58
59493;BME280;45497;43.996;22.876;2023-01-13T08:18:32;101950.81;;;7.69;61.98
59493;BME280;45497;43.996;22.876;2023-01-13T08:21:02;101957.53;;;7.62;62.65
59493;BME280;45497;43.996;22.876;2023-01-13T08:23:28;101958.13;;;7.65;62.71
59493;BME280;45497;43.996;22.876;2023-01-13T08:25:53;101944.53;;;7.70;62.92
59493;BME280;45497;43.996;22.876;2023-01-13T08:28:19;101947.19;;;7.70;62.81
59493;BME280;45497;43.996;22.876;2023-01-13T08:30:44;101946.13;;;7.73;62.51
59493;BME280;45497;43.996;22.876;2023-01-13T08:33:11;101951.75;;;7.79;62.55
59493;BME280;45497;43.996;22.876;2023-01-13T08:35:38;101960.75;;;7.77;62.56
59493;BME280;45497;43.996;22.876;2023-01-13T08:38:04;101955.72;;;7.74;62.44
59493;BME280;45497;43.996;22.876;2023-01-13T08:40:30;101957.03;;;7.68;62.45
59493;BME280;45497;43.996;22.876;2023-01-13T08:42:57;101959.31;;;7.73;62.54
59493;BME280;45497;43.996;22.876;2023-01-13T08:45:22;101950.31;;;7.75;62.24
59493;BME280;45497;43.996;22.876;2023-01-13T08:47:48;101949.25;;;7.78;62.05
59493;BME280;45497;43.996;22.876;2023-01-13T08:50:14;101953.06;;;7.74;62.57
59493;BME280;45497;43.996;22.876;2023-01-13T08:52:40;101951.13;;;7.76;62.25
59493;BME280;45497;43.996;22.876;2023-01-13T08:55:06;101947.66;;;7.75;62.52
59493;BME280;45497;43.996;22.876;2023-01-13T08:57:32;101947.78;;;7.74;62.70
59493;BME280;45497;43.996;22.876;2023-01-13T08:59:57;101951.41;;;7.73;62.61
59493;BME280;45497;43.996;22.876;2023-01-13T09:02:24;101956.66;;;7.84;62.67
59493;BME280;45497;43.996;22.876;2023-01-13T09:04:50;101945.84;;;7.98;62.18
59493;BME280;45497;43.996;22.876;2023-01-13T09:07:16;101948.69;;;8.07;62.04
59493;BME280;45497;43.996;22.876;2023-01-13T09:09:42;101955.75;;;8.17;61.97
59493;BME280;45497;43.996;22.876;2023-01-13T09:12:12;101945.06;;;8.19;62.05
59493;BME280;45497;43.996;22.876;2023-01-13T09:14:56;101941.84;;;8.15;61.77
59493;BME280;45497;43.996;22.876;2023-01-13T09:17:22;101950.47;;;8.17;62.22
59493;BME280;45497;43.996;22.876;2023-01-13T09:19:48;101942.44;;;8.19;62.08
59493;BME280;45497;43.996;22.876;2023-01-13T09:22:15;101946.06;;;8.18;61.71
59493;BME280;45497;43.996;22.876;2023-01-13T09:24:42;101939.47;;;8.12;62.04
59493;BME280;45497;43.996;22.876;2023-01-13T09:27:12;101934.31;;;8.11;62.20
59493;BME280;45497;43.996;22.876;2023-01-13T09:29:38;101937.28;;;8.17;61.99
59493;BME280;45497;43.996;22.876;2023-01-13T09:32:04;101934.63;;;8.17;62.12
59493;BME280;45497;43.996;22.876;2023-01-13T09:34:30;101935.84;;;8.13;62.03
59493;BME280;45497;43.996;22.876;2023-01-13T09:37:13;101937.44;;;8.04;62.13
59493;BME280;45497;43.996;22.876;2023-01-13T09:39:39;101933.94;;;8.04;62.41
59493;BME280;45497;43.996;22.876;2023-01-13T09:45:55;101928.78;;;8.02;62.78
59493;BME280;45497;43.996;22.876;2023-01-13T09:48:31;101925.78;;;8.07;62.53
59493;BME280;45497;43.996;22.876;2023-01-13T09:51:05;101926.13;;;8.14;62.14
59493;BME280;45497;43.996;22.876;2023-01-13T09:53:41;101924.66;;;8.21;62.53
59493;BME280;45497;43.996;22.876;2023-01-13T09:56:09;101926.09;;;8.25;62.26
59493;BME280;45497;43.996;22.876;2023-01-13T09:58:35;101918.38;;;8.33;62.30
59493;BME280;45497;43.996;22.876;2023-01-13T10:01:28;101921.75;;;8.47;62.01
59493;BME280;45497;43.996;22.876;2023-01-13T10:04:03;101918.00;;;8.49;61.60
59493;BME280;45497;43.996;22.876;2023-01-13T10:06:36;101910.78;;;8.51;61.63
59493;BME280;45497;43.996;22.876;2023-01-13T10:09:04;101905.47;;;8.51;61.53
59493;BME280;45497;43.996;22.876;2023-01-13T10:11:37;101907.88;;;8.54;61.55
59493;BME280;45497;43.996;22.876;2023-01-13T10:14:55;101908.72;;;8.55;60.89
59493;BME280;45497;43.996;22.876;2023-01-13T10:26:08;101902.88;;;8.72;60.83
59493;BME280;45497;43.996;22.876;2023-01-13T10:28:38;101896.88;;;8.70;60.60
59493;BME280;45497;43.996;22.876;2023-01-13T10:31:09;101894.59;;;8.66;61.08
59493;BME280;45497;43.996;22.876;2023-01-13T10:33:36;101901.06;;;8.73;61.13
59493;BME280;45497;43.996;22.876;2023-01-13T10:36:11;101896.63;;;8.73;60.33
59493;BME280;45497;43.996;22.876;2023-01-13T10:38:43;101895.63;;;8.74;60.40
59493;BME280;45497;43.996;22.876;2023-01-13T10:43:38;101883.72;;;8.80;60.28
59493;BME280;45497;43.996;22.876;2023-01-13T10:46:08;101878.38;;;8.91;60.14
59493;BME280;45497;43.996;22.876;2023-01-13T10:51:14;101877.72;;;8.99;60.72
59493;BME280;45497;43.996;22.876;2023-01-13T10:53:50;101874.16;;;9.10;59.94
59493;BME280;45497;43.996;22.876;2023-01-13T10:56:18;101872.75;;;9.06;60.14
59493;BME280;45497;43.996;22.876;2023-01-13T10:58:44;101875.38;;;9.06;60.37
59493;BME280;45497;43.996;22.876;2023-01-13T11:01:20;101868.97;;;9.08;60.63
59493;BME280;45497;43.996;22.876;2023-01-13T11:03:50;101862.41;;;9.03;60.17
59493;BME280;45497;43.996;22.876;2023-01-13T11:06:25;101864.00;;;9.15;60.37
59493;BME280;45497;43.996;22.876;2023-01-13T11:08:53;101867.22;;;9.18;60.44
59493;BME280;45497;43.996;22.876;2023-01-13T11:11:42;101863.72;;;9.18;59.88
59493;BME280;45497;43.996;22.876;2023-01-13T11:14:41;101874.09;;;9.31;60.05
59493;BME280;45497;43.996;22.876;2023-01-13T11:22:45;101862.66;;;8.99;59.56
59493;BME280;45497;43.996;22.876;2023-01-13T11:25:33;101859.66;;;9.04;59.86
59493;BME280;45497;43.996;22.876;2023-01-13T11:30:44;101855.75;;;9.08;59.86
59493;BME280;45497;43.996;22.876;2023-01-13T11:33:24;101860.44;;;9.26;59.59
59493;BME280;45497;43.996;22.876;2023-01-13T11:36:09;101846.19;;;9.17;58.90
59493;BME280;45497;43.996;22.876;2023-01-13T11:41:27;101857.44;;;9.09;59.44
59493;BME280;45497;43.996;22.876;2023-01-13T11:46:26;101844.34;;;9.08;59.78
59493;BME280;45497;43.996;22.876;2023-01-13T11:48:53;101850.09;;;9.13;59.35
59493;BME280;45497;43.996;22.876;2023-01-13T11:51:59;101850.66;;;9.16;59.43
59493;BME280;45497;43.996;22.876;2023-01-13T11:54:42;101840.81;;;8.97;59.57
59493;BME280;45497;43.996;22.876;2023-01-13T12:05:40;101839.44;;;9.34;58.97
59493;BME280;45497;43.996;22.876;2023-01-13T12:10:57;101843.31;;;9.30;58.72
59493;BME280;45497;43.996;22.876;2023-01-13T12:16:24;101838.91;;;9.50;58.96
59493;BME280;45497;43.996;22.876;2023-01-13T12:25:04;101827.69;;;9.67;58.60
59493;BME280;45497;43.996;22.876;2023-01-13T12:30:22;101823.66;;;9.83;58.48
59493;BME280;45497;43.996;22.876;2023-01-13T12:32:53;101825.16;;;9.75;58.49
59493;BME280;45497;43.996;22.876;2023-01-13T12:35:47;101818.22;;;9.74;58.33
59493;BME280;45497;43.996;22.876;2023-01-13T12:38:17;101821.56;;;9.76;58.03
59493;BME280;45497;43.996;22.876;2023-01-13T12:43:25;101814.03;;;9.82;58.01
59493;BME280;45497;43.996;22.876;2023-01-13T12:56:56;101833.00;;;9.87;56.92
59493;BME280;45497;43.996;22.876;2023-01-13T13:04:49;101827.13;;;9.73;57.01
59493;BME280;45497;43.996;22.876;2023-01-13T13:10:12;101820.44;;;9.79;57.21
59493;BME280;45497;43.996;22.876;2023-01-13T13:15:31;101827.97;;;9.93;56.64
59493;BME280;45497;43.996;22.876;2023-01-13T13:21:08;101828.94;;;9.83;57.00
59493;BME280;45497;43.996;22.876;2023-01-13T13:24:02;101828.25;;;9.81;56.70
59493;BME280;45497;43.996;22.876;2023-01-13T13:26:36;101832.16;;;9.76;57.22
59493;BME280;45497;43.996;22.876;2023-01-13T13:31:49;101824.75;;;9.70;57.29
59493;BME280;45497;43.996;22.876;2023-01-13T13:35:04;101819.84;;;9.56;57.00
59493;BME280;45497;43.996;22.876;2023-01-13T13:40:23;101818.25;;;9.24;58.06
59493;BME280;45497;43.996;22.876;2023-01-13T13:43:11;101831.81;;;9.10;58.46
59493;BME280;45497;43.996;22.876;2023-01-13T13:45:56;101818.50;;;8.90;59.07
59493;BME280;45497;43.996;22.876;2023-01-13T13:48:50;101811.69;;;8.88;59.38
59493;BME280;45497;43.996;22.876;2023-01-13T13:51:38;101817.56;;;8.91;58.75
59493;BME280;45497;43.996;22.876;2023-01-13T13:54:10;101813.22;;;8.90;59.02
59493;BME280;45497;43.996;22.876;2023-01-13T13:56:41;101816.44;;;8.94;59.15
59493;BME280;45497;43.996;22.876;2023-01-13T13:59:10;101811.16;;;8.94;59.12
59493;BME280;45497;43.996;22.876;2023-01-13T14:01:39;101809.25;;;9.06;59.20
59493;BME280;45497;43.996;22.876;2023-01-13T14:06:54;101814.00;;;8.81;59.05
59493;BME280;45497;43.996;22.876;2023-01-13T14:09:22;101803.84;;;8.55;59.20
59493;BME280;45497;43.996;22.876;2023-01-13T14:14:20;101808.41;;;8.74;59.47
59493;BME280;45497;43.996;22.876;2023-01-13T14:16:45;101811.25;;;8.83;58.84
59493;BME280;45497;43.996;22.876;2023-01-13T14:19:37;101817.69;;;8.90;59.06
59493;BME280;45497;43.996;22.876;2023-01-13T14:22:14;101817.16;;;8.75;59.04
59493;BME280;45497;43.996;22.876;2023-01-13T14:24:47;101819.31;;;8.81;59.06
59493;BME280;45497;43.996;22.876;2023-01-13T14:27:19;101822.53;;;8.85;58.78
59493;BME280;45497;43.996;22.876;2023-01-13T14:29:44;101821.69;;;8.84;58.44
59493;BME280;45497;43.996;22.876;2023-01-13T14:32:14;101816.78;;;8.79;58.66
59493;BME280;45497;43.996;22.876;2023-01-13T14:34:42;101820.09;;;8.72;58.57
59493;BME280;45497;43.996;22.876;2023-01-13T14:37:25;101814.44;;;8.55;58.62
59493;BME280;45497;43.996;22.876;2023-01-13T14:39:55;101821.44;;;8.66;58.89
59493;BME280;45497;43.996;22.876;2023-01-13T14:42:20;101817.56;;;8.70;58.64
59493;BME280;45497;43.996;22.876;2023-01-13T14:44:48;101817.56;;;8.49;58.84
59493;BME280;45497;43.996;22.876;2023-01-13T14:47:29;101816.41;;;8.42;58.47
59493;BME280;45497;43.996;22.876;2023-01-13T14:50:00;101821.31;;;8.47;58.97
59493;BME280;45497;43.996;22.876;2023-01-13T14:52:30;101812.09;;;8.41;58.36
59493;BME280;45497;43.996;22.876;2023-01-13T14:57:34;101820.63;;;8.45;58.58
59493;BME280;45497;43.996;22.876;2023-01-13T15:10:50;101826.03;;;8.32;58.60
59493;BME280;45497;43.996;22.876;2023-01-13T15:13:30;101825.06;;;8.33;58.89
59493;BME280;45497;43.996;22.876;2023-01-13T15:16:06;101820.63;;;8.33;58.54
59493;BME280;45497;43.996;22.876;2023-01-13T15:18:37;101829.53;;;8.32;58.66
59493;BME280;45497;43.996;22.876;2023-01-13T15:21:06;101829.84;;;8.39;58.69
59493;BME280;45497;43.996;22.876;2023-01-13T15:23:31;101831.78;;;8.37;58.60
59493;BME280;45497;43.996;22.876;2023-01-13T15:25:58;101822.66;;;8.41;58.20
59493;BME280;45497;43.996;22.876;2023-01-13T15:28:25;101829.63;;;8.42;58.39
59493;BME280;45497;43.996;22.876;2023-01-13T15:30:53;101818.63;;;8.26;58.82
59493;BME280;45497;43.996;22.876;2023-01-13T15:33:20;101818.81;;;8.13;59.35
59493;BME280;45497;43.996;22.876;2023-01-13T15:35:48;101826.09;;;8.20;58.96
59493;BME280;45497;43.996;22.876;2023-01-13T15:38:20;101826.34;;;8.17;59.02
59493;BME280;45497;43.996;22.876;2023-01-13T15:40:47;101830.16;;;8.24;58.89
59493;BME280;45497;43.996;22.876;2023-01-13T15:43:18;101829.13;;;8.37;58.71
59493;BME280;45497;43.996;22.876;2023-01-13T15:46:05;101823.66;;;8.29;58.59
59493;BME280;45497;43.996;22.876;2023-01-13T15:49:06;101836.81;;;8.40;58.97